sensor_id;sensor_type;location;lat;lon;timestamp;pressure;altitude;pressure_sealevel;temperature;humidity
10587;BME280;5341;47.606;7.576;2023-12-07T00:00:46;99150.47;;;6.28;72.27
10587;BME280;5341;47.606;7.576;2023-12-07T00:03:14;99144.34;;;6.27;72.00
10587;BME280;5341;47.606;7.576;2023-12-07T00:05:42;99146.16;;;6.27;72.34
10587;BME280;5341;47.606;7.576;2023-12-07T00:08:09;99148.97;;;6.25;72.37
10587;BME280;5341;47.606;7.576;2023-12-07T00:10:38;99149.09;;;6.24;72.12
10587;BME280;5341;47.606;7.576;2023-12-07T00:13:07;99145.75;;;6.22;71.96
10587;BME280;5341;47.606;7.576;2023-12-07T00:15:35;99152.06;;;6.21;72.18
10587;BME280;5341;47.606;7.576;2023-12-07T00:18:03;99142.41;;;6.20;71.82
10587;BME280;5341;47.606;7.576;2023-12-07T00:20:30;99147.88;;;6.18;71.97
10587;BME280;5341;47.606;7.576;2023-12-07T00:22:58;99148.84;;;6.17;71.86
10587;BME280;5341;47.606;7.576;2023-12-07T00:25:27;99152.47;;;6.16;71.92
10587;BME280;5341;47.606;7.576;2023-12-07T00:27:55;99152.63;;;6.14;71.88
10587;BME280;5341;47.606;7.576;2023-12-07T00:30:23;99150.94;;;6.13;71.89
10587;BME280;5341;47.606;7.576;2023-12-07T00:32:52;99153.75;;;6.12;71.65
10587;BME280;5341;47.606;7.576;2023-12-07T00:35:21;99157.41;;;6.11;71.72
10587;BME280;5341;47.606;7.576;2023-12-07T00:37:48;99162.72;;;6.11;71.99
10587;BME280;5341;47.606;7.576;2023-12-07T00:40:16;99167.19;;;6.10;72.10
10587;BME280;5341;47.606;7.576;2023-12-07T00:42:44;99162.84;;;6.09;72.07
10587;BME280;5341;47.606;7.576;2023-12-07T00:45:12;99162.00;;;6.09;72.21
10587;BME280;5341;47.606;7.576;2023-12-07T00:47:41;99163.84;;;6.08;72.24
10587;BME280;5341;47.606;7.576;2023-12-07T00:50:12;99170.97;;;6.08;71.96
10587;BME280;5341;47.606;7.576;2023-12-07T00:52:40;99171.13;;;6.06;72.14
10587;BME280;5341;47.606;7.576;2023-12-07T00:55:08;99173.88;;;6.05;72.04
10587;BME280;5341;47.606;7.576;2023-12-07T00:57:35;99173.88;;;6.05;72.09
10587;BME280;5341;47.606;7.576;2023-12-07T01:00:03;99176.53;;;6.05;71.66
10587;BME280;5341;47.606;7.576;2023-12-07T01:02:32;99172.22;;;6.04;71.81
10587;BME280;5341;47.606;7.576;2023-12-07T01:05:03;99177.53;;;6.04;72.22
10587;BME280;5341;47.606;7.576;2023-12-07T01:07:31;99174.88;;;6.04;71.85
10587;BME280;5341;47.606;7.576;2023-12-07T01:09:58;99173.19;;;6.03;71.86
10587;BME280;5341;47.606;7.576;2023-12-07T01:12:27;99175.00;;;6.02;71.86
10587;BME280;5341;47.606;7.576;2023-12-07T01:14:54;99168.88;;;6.02;72.04
10587;BME280;5341;47.606;7.576;2023-12-07T01:17:22;99169.00;;;6.00;71.95
10587;BME280;5341;47.606;7.576;2023-12-07T01:19:49;99184.09;;;6.00;71.66
10587;BME280;5341;47.606;7.576;2023-12-07T01:22:18;99182.44;;;5.99;71.74
10587;BME280;5341;47.606;7.576;2023-12-07T01:24:46;99182.59;;;5.97;72.04
10587;BME280;5341;47.606;7.576;2023-12-07T01:27:13;99181.88;;;5.95;71.91
10587;BME280;5341;47.606;7.576;2023-12-07T01:29:47;99187.34;;;5.94;71.59
10587;BME280;5341;47.606;7.576;2023-12-07T01:32:15;99188.28;;;5.93;71.52
10587;BME280;5341;47.606;7.576;2023-12-07T01:34:44;99180.47;;;5.91;71.78
10587;BME280;5341;47.606;7.576;2023-12-07T01:37:11;99179.75;;;5.89;71.53
10587;BME280;5341;47.606;7.576;2023-12-07T01:39:42;99186.03;;;5.88;71.52
10587;BME280;5341;47.606;7.576;2023-12-07T01:42:10;99186.19;;;5.86;71.68
10587;BME280;5341;47.606;7.576;2023-12-07T01:44:38;99181.03;;;5.85;71.84
10587;BME280;5341;47.606;7.576;2023-12-07T01:47:08;99187.31;;;5.84;71.41
10587;BME280;5341;47.606;7.576;2023-12-07T01:49:37;99182.16;;;5.82;71.64
10587;BME280;5341;47.606;7.576;2023-12-07T01:52:06;99182.28;;;5.81;71.44
10587;BME280;5341;47.606;7.576;2023-12-07T01:54:35;99178.25;;;5.77;71.23
10587;BME280;5341;47.606;7.576;2023-12-07T01:57:04;99177.41;;;5.76;71.33
10587;BME280;5341;47.606;7.576;2023-12-07T01:59:33;99176.56;;;5.76;71.28
10587;BME280;5341;47.606;7.576;2023-12-07T02:02:01;99171.56;;;5.73;71.66
10587;BME280;5341;47.606;7.576;2023-12-07T02:04:29;99178.81;;;5.71;71.23
10587;BME280;5341;47.606;7.576;2023-12-07T02:07:00;99178.94;;;5.69;71.33
10587;BME280;5341;47.606;7.576;2023-12-07T02:09:30;99184.38;;;5.68;71.00
10587;BME280;5341;47.606;7.576;2023-12-07T02:11:58;99189.00;;;5.66;71.45
10587;BME280;5341;47.606;7.576;2023-12-07T02:14:29;99187.47;;;5.63;71.46
10587;BME280;5341;47.606;7.576;2023-12-07T02:17:01;99185.09;;;5.60;71.33
10587;BME280;5341;47.606;7.576;2023-12-07T02:19:49;99190.56;;;5.58;71.01
10587;BME280;5341;47.606;7.576;2023-12-07T02:22:25;99192.63;;;5.55;71.35
10587;BME280;5341;47.606;7.576;2023-12-07T02:25:04;99191.78;;;5.54;70.90
10587;BME280;5341;47.606;7.576;2023-12-07T02:27:37;99202.69;;;5.51;71.17
10587;BME280;5341;47.606;7.576;2023-12-07T02:30:06;99199.47;;;5.48;71.18
10587;BME280;5341;47.606;7.576;2023-12-07T02:32:36;99192.50;;;5.47;71.21
10587;BME280;5341;47.606;7.576;2023-12-07T02:35:05;99189.13;;;5.45;70.74
10587;BME280;5341;47.606;7.576;2023-12-07T02:37:35;99197.22;;;5.43;71.23
10587;BME280;5341;47.606;7.576;2023-12-07T02:40:06;99200.03;;;5.42;70.66
10587;BME280;5341;47.606;7.576;2023-12-07T02:42:39;99199.34;;;5.40;70.73
10587;BME280;5341;47.606;7.576;2023-12-07T02:45:10;99197.81;;;5.37;70.54
10587;BME280;5341;47.606;7.576;2023-12-07T02:47:39;99192.63;;;5.36;70.88
10587;BME280;5341;47.606;7.576;2023-12-07T02:50:07;99193.63;;;5.35;70.66
10587;BME280;5341;47.606;7.576;2023-12-07T02:52:35;99197.25;;;5.34;70.65
10587;BME280;5341;47.606;7.576;2023-12-07T02:55:03;99191.09;;;5.33;70.54
10587;BME280;5341;47.606;7.576;2023-12-07T02:57:32;99183.25;;;5.32;70.43
10587;BME280;5341;47.606;7.576;2023-12-07T03:00:02;99187.72;;;5.31;70.66
10587;BME280;5341;47.606;7.576;2023-12-07T03:02:33;99182.44;;;5.31;70.79
10587;BME280;5341;47.606;7.576;2023-12-07T03:05:01;99183.41;;;5.30;70.69
10587;BME280;5341;47.606;7.576;2023-12-07T03:07:28;99185.06;;;5.31;70.44
10587;BME280;5341;47.606;7.576;2023-12-07T03:09:55;99185.06;;;5.31;70.97
10587;BME280;5341;47.606;7.576;2023-12-07T03:12:23;99181.59;;;5.30;70.96
10587;BME280;5341;47.606;7.576;2023-12-07T03:14:50;99187.72;;;5.31;70.38
10587;BME280;5341;47.606;7.576;2023-12-07T03:17:20;99187.72;;;5.31;70.77
10587;BME280;5341;47.606;7.576;2023-12-07T03:19:47;99186.06;;;5.30;70.43
10587;BME280;5341;47.606;7.576;2023-12-07T03:22:15;99184.25;;;5.30;70.83
10587;BME280;5341;47.606;7.576;2023-12-07T03:24:46;99185.91;;;5.32;70.93
10587;BME280;5341;47.606;7.576;2023-12-07T03:27:14;99182.44;;;5.31;70.42
10587;BME280;5341;47.606;7.576;2023-12-07T03:29:42;99189.53;;;5.30;70.77
10587;BME280;5341;47.606;7.576;2023-12-07T03:32:09;99186.19;;;5.28;70.35
10587;BME280;5341;47.606;7.576;2023-12-07T03:34:38;99189.69;;;5.29;70.07
10587;BME280;5341;47.606;7.576;2023-12-07T03:37:08;99188.84;;;5.28;70.35
10587;BME280;5341;47.606;7.576;2023-12-07T03:39:37;99193.47;;;5.26;70.63
10587;BME280;5341;47.606;7.576;2023-12-07T03:42:05;99190.13;;;5.24;70.70
10587;BME280;5341;47.606;7.576;2023-12-07T03:44:32;99186.63;;;5.24;70.46
10587;BME280;5341;47.606;7.576;2023-12-07T03:47:00;99182.44;;;5.21;70.54
10587;BME280;5341;47.606;7.576;2023-12-07T03:49:27;99179.91;;;5.20;70.23
10587;BME280;5341;47.606;7.576;2023-12-07T03:51:57;99181.72;;;5.19;70.16
10587;BME280;5341;47.606;7.576;2023-12-07T03:54:25;99188.97;;;5.17;70.65
10587;BME280;5341;47.606;7.576;2023-12-07T03:56:54;99186.31;;;5.17;70.37
10587;BME280;5341;47.606;7.576;2023-12-07T03:59:21;99177.69;;;5.15;70.14
10587;BME280;5341;47.606;7.576;2023-12-07T04:01:49;99182.13;;;5.15;70.57
10587;BME280;5341;47.606;7.576;2023-12-07T04:04:16;99181.44;;;5.13;70.00
10587;BME280;5341;47.606;7.576;2023-12-07T04:06:47;99189.41;;;5.13;70.14
10587;BME280;5341;47.606;7.576;2023-12-07T04:09:16;99168.34;;;5.11;69.91
10587;BME280;5341;47.606;7.576;2023-12-07T04:11:44;99172.94;;;5.09;70.65
10587;BME280;5341;47.606;7.576;2023-12-07T04:14:12;99179.19;;;5.08;70.59
10587;BME280;5341;47.606;7.576;2023-12-07T04:16:42;99186.44;;;5.06;70.50
10587;BME280;5341;47.606;7.576;2023-12-07T04:19:10;99179.47;;;5.05;69.99
10587;BME280;5341;47.606;7.576;2023-12-07T04:21:37;99183.94;;;5.05;70.07
10587;BME280;5341;47.606;7.576;2023-12-07T04:24:05;99177.09;;;5.02;69.84
10587;BME280;5341;47.606;7.576;2023-12-07T04:26:34;99176.97;;;5.04;70.03
10587;BME280;5341;47.606;7.576;2023-12-07T04:29:02;99189.38;;;5.03;70.23
10587;BME280;5341;47.606;7.576;2023-12-07T04:31:32;99191.19;;;5.03;70.15
10587;BME280;5341;47.606;7.576;2023-12-07T04:34:02;99196.50;;;5.03;70.34
10587;BME280;5341;47.606;7.576;2023-12-07T04:36:30;99204.44;;;5.03;69.94
10587;BME280;5341;47.606;7.576;2023-12-07T04:38:58;99207.94;;;5.03;69.97
10587;BME280;5341;47.606;7.576;2023-12-07T04:41:28;99203.31;;;5.05;70.10
10587;BME280;5341;47.606;7.576;2023-12-07T04:43:58;99208.63;;;5.05;70.53
10587;BME280;5341;47.606;7.576;2023-12-07T04:46:26;99205.00;;;5.06;70.43
10587;BME280;5341;47.606;7.576;2023-12-07T04:49:00;99200.38;;;5.08;70.07
10587;BME280;5341;47.606;7.576;2023-12-07T04:51:28;99200.38;;;5.08;70.55
10587;BME280;5341;47.606;7.576;2023-12-07T04:53:55;99200.38;;;5.08;70.04
10587;BME280;5341;47.606;7.576;2023-12-07T04:56:23;99198.72;;;5.07;70.68
10587;BME280;5341;47.606;7.576;2023-12-07T04:58:54;99199.69;;;5.06;70.52
10587;BME280;5341;47.606;7.576;2023-12-07T05:01:24;99188.25;;;5.06;70.41
10587;BME280;5341;47.606;7.576;2023-12-07T05:03:51;99178.63;;;5.05;69.89
10587;BME280;5341;47.606;7.576;2023-12-07T05:06:19;99193.69;;;5.04;69.77
10587;BME280;5341;47.606;7.576;2023-12-07T05:08:47;99183.09;;;5.04;70.00
10587;BME280;5341;47.606;7.576;2023-12-07T05:11:18;99177.09;;;5.02;69.94
10587;BME280;5341;47.606;7.576;2023-12-07T05:13:47;99193.13;;;5.00;69.89
10587;BME280;5341;47.606;7.576;2023-12-07T05:16:15;99184.34;;;5.00;70.04
10587;BME280;5341;47.606;7.576;2023-12-07T05:18:44;99186.31;;;4.98;69.67
10587;BME280;5341;47.606;7.576;2023-12-07T05:21:13;99181.13;;;4.96;69.82
10587;BME280;5341;47.606;7.576;2023-12-07T05:23:40;99183.91;;;4.95;70.28
10587;BME280;5341;47.606;7.576;2023-12-07T05:26:08;99174.41;;;4.92;70.09
10587;BME280;5341;47.606;7.576;2023-12-07T05:28:36;99179.84;;;4.91;70.16
10587;BME280;5341;47.606;7.576;2023-12-07T05:31:04;99180.84;;;4.90;70.22
10587;BME280;5341;47.606;7.576;2023-12-07T05:33:34;99178.31;;;4.88;70.11
10587;BME280;5341;47.606;7.576;2023-12-07T05:36:03;99178.59;;;4.85;70.11
10587;BME280;5341;47.606;7.576;2023-12-07T05:38:33;99175.38;;;4.82;70.11
10587;BME280;5341;47.606;7.576;2023-12-07T05:41:00;99181.50;;;4.82;70.05
10587;BME280;5341;47.606;7.576;2023-12-07T05:43:29;99183.47;;;4.80;69.60
10587;BME280;5341;47.606;7.576;2023-12-07T05:45:58;99175.78;;;4.77;70.11
10587;BME280;5341;47.606;7.576;2023-12-07T05:48:25;99182.06;;;4.76;70.24
10587;BME280;5341;47.606;7.576;2023-12-07T05:50:53;99190.97;;;4.75;70.02
10587;BME280;5341;47.606;7.576;2023-12-07T05:53:25;99199.06;;;4.74;69.72
10587;BME280;5341;47.606;7.576;2023-12-07T05:55:53;99185.94;;;4.72;69.44
10587;BME280;5341;47.606;7.576;2023-12-07T05:58:21;99188.72;;;4.70;69.69
10587;BME280;5341;47.606;7.576;2023-12-07T06:00:49;99186.22;;;4.69;69.68
10587;BME280;5341;47.606;7.576;2023-12-07T06:03:16;99185.50;;;4.67;69.73
10587;BME280;5341;47.606;7.576;2023-12-07T06:05:43;99190.94;;;4.65;69.53
10587;BME280;5341;47.606;7.576;2023-12-07T06:08:12;99201.69;;;4.64;69.80
10587;BME280;5341;47.606;7.576;2023-12-07T06:10:41;99207.13;;;4.62;69.11
10587;BME280;5341;47.606;7.576;2023-12-07T06:13:10;99195.94;;;4.59;69.77
10587;BME280;5341;47.606;7.576;2023-12-07T06:15:38;99197.72;;;4.58;69.29
10587;BME280;5341;47.606;7.576;2023-12-07T06:18:07;99200.53;;;4.57;69.16
10587;BME280;5341;47.606;7.576;2023-12-07T06:20:34;99197.03;;;4.56;69.24
10587;BME280;5341;47.606;7.576;2023-12-07T06:23:02;99203.16;;;4.57;69.11
10587;BME280;5341;47.606;7.576;2023-12-07T06:25:30;99197.19;;;4.55;69.60
10587;BME280;5341;47.606;7.576;2023-12-07T06:28:00;99200.78;;;4.54;69.20
10587;BME280;5341;47.606;7.576;2023-12-07T06:30:28;99203.59;;;4.52;68.95
10587;BME280;5341;47.606;7.576;2023-12-07T06:32:56;99209.72;;;4.53;69.27
10587;BME280;5341;47.606;7.576;2023-12-07T06:35:24;99209.00;;;4.51;69.19
10587;BME280;5341;47.606;7.576;2023-12-07T06:37:51;99202.88;;;4.50;69.18
10587;BME280;5341;47.606;7.576;2023-12-07T06:40:19;99205.53;;;4.50;69.51
10587;BME280;5341;47.606;7.576;2023-12-07T06:42:47;99203.03;;;4.49;69.16
10587;BME280;5341;47.606;7.576;2023-12-07T06:45:17;99192.53;;;4.47;68.78
10587;BME280;5341;47.606;7.576;2023-12-07T06:47:46;99187.38;;;4.46;69.20
10587;BME280;5341;47.606;7.576;2023-12-07T06:50:15;99182.22;;;4.44;69.35
10587;BME280;5341;47.606;7.576;2023-12-07T06:52:43;99187.50;;;4.44;69.48
10587;BME280;5341;47.606;7.576;2023-12-07T06:55:16;99185.00;;;4.43;69.31
10587;BME280;5341;47.606;7.576;2023-12-07T06:57:47;99171.06;;;4.40;68.69
10587;BME280;5341;47.606;7.576;2023-12-07T07:00:17;99177.31;;;4.39;68.76
10587;BME280;5341;47.606;7.576;2023-12-07T07:02:48;99184.44;;;4.39;69.06
10587;BME280;5341;47.606;7.576;2023-12-07T07:05:17;99193.22;;;4.39;68.95
10587;BME280;5341;47.606;7.576;2023-12-07T07:07:46;99187.09;;;4.39;69.02
10587;BME280;5341;47.606;7.576;2023-12-07T07:10:14;99191.53;;;4.38;69.41
10587;BME280;5341;47.606;7.576;2023-12-07T07:12:44;99198.50;;;4.39;69.11
10587;BME280;5341;47.606;7.576;2023-12-07T07:15:12;99195.84;;;4.39;68.81
10587;BME280;5341;47.606;7.576;2023-12-07T07:17:40;99193.22;;;4.39;69.37
10587;BME280;5341;47.606;7.576;2023-12-07T07:20:08;99191.25;;;4.41;69.14
10587;BME280;5341;47.606;7.576;2023-12-07T07:22:36;99185.97;;;4.41;68.88
10587;BME280;5341;47.606;7.576;2023-12-07T07:25:04;99181.50;;;4.42;68.89
10587;BME280;5341;47.606;7.576;2023-12-07T07:27:32;99184.16;;;4.42;69.07
10587;BME280;5341;47.606;7.576;2023-12-07T07:29:59;99191.25;;;4.41;69.41
10587;BME280;5341;47.606;7.576;2023-12-07T07:32:30;99187.66;;;4.43;69.32
10587;BME280;5341;47.606;7.576;2023-12-07T07:35:08;99202.44;;;4.45;69.12
10587;BME280;5341;47.606;7.576;2023-12-07T07:37:37;99198.94;;;4.45;69.50
10587;BME280;5341;47.606;7.576;2023-12-07T07:40:06;99190.03;;;4.46;69.89
10587;BME280;5341;47.606;7.576;2023-12-07T07:42:34;99181.09;;;4.47;69.55
10587;BME280;5341;47.606;7.576;2023-12-07T07:45:03;99186.16;;;4.50;69.57
10587;BME280;5341;47.606;7.576;2023-12-07T07:47:31;99170.13;;;4.51;69.89
10587;BME280;5341;47.606;7.576;2023-12-07T07:50:00;99162.03;;;4.53;69.60
10587;BME280;5341;47.606;7.576;2023-12-07T07:52:32;99163.72;;;4.54;69.69
10587;BME280;5341;47.606;7.576;2023-12-07T07:55:01;99168.75;;;4.57;69.83
10587;BME280;5341;47.606;7.576;2023-12-07T07:57:30;99164.97;;;4.59;69.88
10587;BME280;5341;47.606;7.576;2023-12-07T07:59:58;99174.63;;;4.60;70.19
10587;BME280;5341;47.606;7.576;2023-12-07T08:02:26;99174.34;;;4.63;70.11
10587;BME280;5341;47.606;7.576;2023-12-07T08:04:54;99175.06;;;4.65;69.88
10587;BME280;5341;47.606;7.576;2023-12-07T08:07:23;99176.72;;;4.66;69.84
10587;BME280;5341;47.606;7.576;2023-12-07T08:09:53;99167.66;;;4.69;70.53
10587;BME280;5341;47.606;7.576;2023-12-07T08:12:21;99150.78;;;4.70;70.38
10587;BME280;5341;47.606;7.576;2023-12-07T08:14:49;99145.34;;;4.71;70.41
10587;BME280;5341;47.606;7.576;2023-12-07T08:17:17;99140.78;;;4.74;69.94
10587;BME280;5341;47.606;7.576;2023-12-07T08:19:46;99138.84;;;4.76;69.90
10587;BME280;5341;47.606;7.576;2023-12-07T08:22:16;99141.19;;;4.79;70.17
10587;BME280;5341;47.606;7.576;2023-12-07T08:24:46;99144.53;;;4.81;70.18
10587;BME280;5341;47.606;7.576;2023-12-07T08:27:14;99139.94;;;4.83;70.21
10587;BME280;5341;47.606;7.576;2023-12-07T08:29:42;99136.31;;;4.84;69.85
10587;BME280;5341;47.606;7.576;2023-12-07T08:32:12;99136.06;;;4.87;70.59
10587;BME280;5341;47.606;7.576;2023-12-07T08:34:40;99135.78;;;4.90;70.16
10587;BME280;5341;47.606;7.576;2023-12-07T08:37:07;99132.16;;;4.91;70.10
10587;BME280;5341;47.606;7.576;2023-12-07T08:39:36;99129.38;;;4.92;69.91
10587;BME280;5341;47.606;7.576;2023-12-07T08:42:05;99138.00;;;4.94;70.20
10587;BME280;5341;47.606;7.576;2023-12-07T08:44:33;99134.13;;;4.98;70.59
10587;BME280;5341;47.606;7.576;2023-12-07T08:47:01;99140.28;;;4.99;70.56
10587;BME280;5341;47.606;7.576;2023-12-07T08:49:33;99147.94;;;5.02;70.04
10587;BME280;5341;47.606;7.576;2023-12-07T08:52:00;99141.66;;;5.03;70.71
10587;BME280;5341;47.606;7.576;2023-12-07T08:54:29;99141.38;;;5.06;70.50
10587;BME280;5341;47.606;7.576;2023-12-07T08:56:56;99144.88;;;5.07;70.54
10587;BME280;5341;47.606;7.576;2023-12-07T08:59:25;99151.72;;;5.09;70.46
10587;BME280;5341;47.606;7.576;2023-12-07T09:01:53;99160.38;;;5.11;70.31
10587;BME280;5341;47.606;7.576;2023-12-07T09:04:20;99162.88;;;5.13;70.28
10587;BME280;5341;47.606;7.576;2023-12-07T09:06:48;99160.94;;;5.15;69.63
10587;BME280;5341;47.606;7.576;2023-12-07T09:09:15;99161.63;;;5.17;69.82
10587;BME280;5341;47.606;7.576;2023-12-07T09:11:44;99146.56;;;5.17;70.09
10587;BME280;5341;47.606;7.576;2023-12-07T09:14:14;99133.00;;;5.20;69.68
10587;BME280;5341;47.606;7.576;2023-12-07T09:16:55;99124.81;;;5.23;69.70
10587;BME280;5341;47.606;7.576;2023-12-07T09:19:23;99116.00;;;5.23;69.53
10587;BME280;5341;47.606;7.576;2023-12-07T09:21:53;99122.00;;;5.25;69.77
10587;BME280;5341;47.606;7.576;2023-12-07T09:24:21;99122.72;;;5.27;69.83
10587;BME280;5341;47.606;7.576;2023-12-07T09:26:48;99118.09;;;5.29;69.21
10587;BME280;5341;47.606;7.576;2023-12-07T09:29:16;99122.41;;;5.30;69.70
10587;BME280;5341;47.606;7.576;2023-12-07T09:31:55;99116.72;;;5.35;69.34
10587;BME280;5341;47.606;7.576;2023-12-07T09:34:23;99122.84;;;5.35;69.20
10587;BME280;5341;47.606;7.576;2023-12-07T09:37:16;99126.06;;;5.39;69.14
10587;BME280;5341;47.606;7.576;2023-12-07T09:39:46;99126.88;;;5.39;68.92
10587;BME280;5341;47.606;7.576;2023-12-07T09:42:16;99123.94;;;5.42;69.37
10587;BME280;5341;47.606;7.576;2023-12-07T09:44:48;99123.69;;;5.45;69.16
10587;BME280;5341;47.606;7.576;2023-12-07T09:47:21;99112.94;;;5.47;68.77
10587;BME280;5341;47.606;7.576;2023-12-07T09:49:49;99109.31;;;5.48;69.29
10587;BME280;5341;47.606;7.576;2023-12-07T09:52:19;99109.69;;;5.53;69.09
10587;BME280;5341;47.606;7.576;2023-12-07T09:54:49;99110.41;;;5.55;69.22
10587;BME280;5341;47.606;7.576;2023-12-07T09:57:18;99121.59;;;5.58;69.24
10587;BME280;5341;47.606;7.576;2023-12-07T09:59:45;99113.31;;;5.62;68.70
10587;BME280;5341;47.606;7.576;2023-12-07T10:02:15;99113.03;;;5.65;69.01
10587;BME280;5341;47.606;7.576;2023-12-07T10:04:47;99120.00;;;5.66;69.19
10587;BME280;5341;47.606;7.576;2023-12-07T10:07:15;99122.53;;;5.67;69.25
10587;BME280;5341;47.606;7.576;2023-12-07T10:09:42;99123.22;;;5.69;68.93
10587;BME280;5341;47.606;7.576;2023-12-07T10:12:10;99135.38;;;5.72;69.03
10587;BME280;5341;47.606;7.576;2023-12-07T10:14:38;99125.59;;;5.72;68.57
10587;BME280;5341;47.606;7.576;2023-12-07T10:17:06;99129.94;;;5.73;68.36
10587;BME280;5341;47.606;7.576;2023-12-07T10:19:34;99118.19;;;5.76;68.50
10587;BME280;5341;47.606;7.576;2023-12-07T10:22:13;99119.72;;;5.78;68.71
10587;BME280;5341;47.606;7.576;2023-12-07T10:24:41;99114.25;;;5.80;68.57
10587;BME280;5341;47.606;7.576;2023-12-07T10:27:09;99107.84;;;5.82;68.33
10587;BME280;5341;47.606;7.576;2023-12-07T10:29:37;99111.34;;;5.83;68.20
10587;BME280;5341;47.606;7.576;2023-12-07T10:32:06;99109.38;;;5.85;68.28
10587;BME280;5341;47.606;7.576;2023-12-07T10:34:33;99098.59;;;5.86;68.00
10587;BME280;5341;47.606;7.576;2023-12-07T10:37:08;99097.63;;;5.87;68.33
10587;BME280;5341;47.606;7.576;2023-12-07T10:39:35;99101.13;;;5.88;68.39
10587;BME280;5341;47.606;7.576;2023-12-07T10:42:07;99088.56;;;5.90;68.17
10587;BME280;5341;47.606;7.576;2023-12-07T10:44:41;99082.28;;;5.91;68.13
10587;BME280;5341;47.606;7.576;2023-12-07T10:47:10;99070.81;;;5.91;67.89
10587;BME280;5341;47.606;7.576;2023-12-07T10:49:40;99061.03;;;5.91;67.69
10587;BME280;5341;47.606;7.576;2023-12-07T10:52:13;99051.25;;;5.92;67.79
10587;BME280;5341;47.606;7.576;2023-12-07T10:54:47;99046.94;;;5.91;67.79
10587;BME280;5341;47.606;7.576;2023-12-07T10:57:20;99045.94;;;5.92;67.44
10587;BME280;5341;47.606;7.576;2023-12-07T10:59:49;99041.47;;;5.92;67.24
10587;BME280;5341;47.606;7.576;2023-12-07T11:02:18;99036.16;;;5.92;67.45
10587;BME280;5341;47.606;7.576;2023-12-07T11:04:49;99035.19;;;5.93;67.65
10587;BME280;5341;47.606;7.576;2023-12-07T11:07:20;99019.25;;;5.93;67.58
10587;BME280;5341;47.606;7.576;2023-12-07T11:10:00;99017.16;;;5.97;67.41
10587;BME280;5341;47.606;7.576;2023-12-07T11:12:44;99009.88;;;5.99;67.46
10587;BME280;5341;47.606;7.576;2023-12-07T11:15:14;98996.63;;;5.99;67.46
10587;BME280;5341;47.606;7.576;2023-12-07T11:17:52;98994.50;;;6.02;67.04
10587;BME280;5341;47.606;7.576;2023-12-07T11:20:31;98984.03;;;6.01;67.32
10587;BME280;5341;47.606;7.576;2023-12-07T11:23:04;98983.72;;;6.04;67.13
10587;BME280;5341;47.606;7.576;2023-12-07T11:25:32;98985.41;;;6.05;67.20
10587;BME280;5341;47.606;7.576;2023-12-07T11:28:01;98975.59;;;6.05;67.42
10587;BME280;5341;47.606;7.576;2023-12-07T11:30:31;98966.69;;;6.06;67.39
10587;BME280;5341;47.606;7.576;2023-12-07T11:32:59;98971.16;;;6.06;66.99
10587;BME280;5341;47.606;7.576;2023-12-07T11:35:27;98964.88;;;6.07;66.92
10587;BME280;5341;47.606;7.576;2023-12-07T11:38:07;98969.19;;;6.08;66.82
10587;BME280;5341;47.606;7.576;2023-12-07T11:40:38;98960.53;;;6.06;66.79
10587;BME280;5341;47.606;7.576;2023-12-07T11:43:07;98952.69;;;6.04;66.48
10587;BME280;5341;47.606;7.576;2023-12-07T11:45:39;98958.84;;;6.05;66.81
10587;BME280;5341;47.606;7.576;2023-12-07T11:48:07;98954.38;;;6.05;66.33
10587;BME280;5341;47.606;7.576;2023-12-07T11:50:35;98961.22;;;6.08;66.75
10587;BME280;5341;47.606;7.576;2023-12-07T11:53:03;98962.91;;;6.09;66.79
10587;BME280;5341;47.606;7.576;2023-12-07T11:55:34;98969.72;;;6.11;66.37
10587;BME280;5341;47.606;7.576;2023-12-07T11:58:01;98971.38;;;6.12;66.42
10587;BME280;5341;47.606;7.576;2023-12-07T12:00:29;98969.56;;;6.13;66.68
10587;BME280;5341;47.606;7.576;2023-12-07T12:02:56;98966.75;;;6.14;66.40
10587;BME280;5341;47.606;7.576;2023-12-07T12:05:24;98963.13;;;6.15;66.37
10587;BME280;5341;47.606;7.576;2023-12-07T12:07:52;98958.50;;;6.17;66.23
10587;BME280;5341;47.606;7.576;2023-12-07T12:10:20;98960.03;;;6.20;66.42
10587;BME280;5341;47.606;7.576;2023-12-07T12:12:51;98950.09;;;6.22;66.41
10587;BME280;5341;47.606;7.576;2023-12-07T12:15:20;98940.31;;;6.23;66.24
10587;BME280;5341;47.606;7.576;2023-12-07T12:17:48;98940.16;;;6.24;66.14
10587;BME280;5341;47.606;7.576;2023-12-07T12:20:15;98930.50;;;6.23;66.11
10587;BME280;5341;47.606;7.576;2023-12-07T12:22:44;98943.47;;;6.26;65.79
10587;BME280;5341;47.606;7.576;2023-12-07T12:25:12;98945.00;;;6.29;66.31
10587;BME280;5341;47.606;7.576;2023-12-07T12:27:40;98951.03;;;6.31;66.25
10587;BME280;5341;47.606;7.576;2023-12-07T12:30:11;98950.88;;;6.32;66.09
10587;BME280;5341;47.606;7.576;2023-12-07T12:32:43;98949.72;;;6.35;66.14
10587;BME280;5341;47.606;7.576;2023-12-07T12:35:11;98946.09;;;6.36;65.98
10587;BME280;5341;47.606;7.576;2023-12-07T12:37:41;98945.78;;;6.39;65.73
10587;BME280;5341;47.606;7.576;2023-12-07T12:40:11;98945.78;;;6.39;65.96
10587;BME280;5341;47.606;7.576;2023-12-07T12:42:42;98949.09;;;6.41;65.72
10587;BME280;5341;47.606;7.576;2023-12-07T12:45:13;98927.03;;;6.40;65.80
10587;BME280;5341;47.606;7.576;2023-12-07T12:47:41;98908.28;;;6.42;65.63
10587;BME280;5341;47.606;7.576;2023-12-07T12:50:11;98896.69;;;6.43;65.75
10587;BME280;5341;47.606;7.576;2023-12-07T12:52:39;98874.59;;;6.42;65.41
10587;BME280;5341;47.606;7.576;2023-12-07T12:55:09;98885.06;;;6.44;65.62
10587;BME280;5341;47.606;7.576;2023-12-07T12:57:37;98878.94;;;6.43;65.40
10587;BME280;5341;47.606;7.576;2023-12-07T13:00:06;98863.81;;;6.44;65.01
10587;BME280;5341;47.606;7.576;2023-12-07T13:02:35;98854.72;;;6.46;64.74
10587;BME280;5341;47.606;7.576;2023-12-07T13:05:04;98843.25;;;6.46;64.77
10587;BME280;5341;47.606;7.576;2023-12-07T13:07:33;98851.22;;;6.46;64.93
10587;BME280;5341;47.606;7.576;2023-12-07T13:10:01;98853.56;;;6.49;64.48
10587;BME280;5341;47.606;7.576;2023-12-07T13:12:30;98857.88;;;6.50;64.80
10587;BME280;5341;47.606;7.576;2023-12-07T13:15:01;98862.19;;;6.51;64.51
10587;BME280;5341;47.606;7.576;2023-12-07T13:17:30;98858.56;;;6.52;64.91
10587;BME280;5341;47.606;7.576;2023-12-07T13:20:00;98861.06;;;6.54;64.59
10587;BME280;5341;47.606;7.576;2023-12-07T13:22:28;98862.75;;;6.55;64.82
10587;BME280;5341;47.606;7.576;2023-12-07T13:24:56;98857.44;;;6.55;64.65
10587;BME280;5341;47.606;7.576;2023-12-07T13:27:24;98856.59;;;6.54;64.31
10587;BME280;5341;47.606;7.576;2023-12-07T13:29:51;98853.94;;;6.54;64.58
10587;BME280;5341;47.606;7.576;2023-12-07T13:32:19;98852.13;;;6.55;64.67